sensor_id;sensor_type;location;lat;lon;timestamp;pressure;altitude;pressure_sealevel;temperature;humidity
36234;BME280;43467;50.890;5.982;2023-01-10T00:00:22;99908.66;;;6.60;80.67
36234;BME280;43467;50.890;5.982;2023-01-10T00:02:48;99922.75;;;6.58;80.79
36234;BME280;43467;50.890;5.982;2023-01-10T00:05:13;99915.72;;;6.58;80.78
36234;BME280;43467;50.890;5.982;2023-01-10T00:07:40;99925.69;;;6.73;80.88
36234;BME280;43467;50.890;5.982;2023-01-10T00:10:05;99927.16;;;6.82;80.12
36234;BME280;43467;50.890;5.982;2023-01-10T00:12:31;99922.59;;;6.87;80.21
36234;BME280;43467;50.890;5.982;2023-01-10T00:15:15;99923.44;;;6.87;79.75
36234;BME280;43467;50.890;5.982;2023-01-10T00:17:40;99936.94;;;6.78;79.97
36234;BME280;43467;50.890;5.982;2023-01-10T00:20:06;99938.09;;;6.70;80.36
36234;BME280;43467;50.890;5.982;2023-01-10T00:22:31;99953.13;;;6.66;80.61
36234;BME280;43467;50.890;5.982;2023-01-10T00:24:57;99934.38;;;6.50;80.57
36234;BME280;43467;50.890;5.982;2023-01-10T00:27:22;99960.00;;;6.70;80.23
36234;BME280;43467;50.890;5.982;2023-01-10T00:29:49;99951.06;;;6.76;80.21
36234;BME280;43467;50.890;5.982;2023-01-10T00:32:18;99962.75;;;6.67;80.16
36234;BME280;43467;50.890;5.982;2023-01-10T00:34:44;99968.63;;;6.75;79.94
36234;BME280;43467;50.890;5.982;2023-01-10T00:37:09;99964.25;;;6.74;79.75
36234;BME280;43467;50.890;5.982;2023-01-10T00:39:35;99971.25;;;6.75;79.57
36234;BME280;43467;50.890;5.982;2023-01-10T00:42:00;99976.50;;;6.75;79.61
36234;BME280;43467;50.890;5.982;2023-01-10T00:44:44;99972.25;;;6.71;79.05
36234;BME280;43467;50.890;5.982;2023-01-10T00:47:11;99968.13;;;6.64;79.61
36234;BME280;43467;50.890;5.982;2023-01-10T00:49:37;99990.00;;;6.65;79.56
36234;BME280;43467;50.890;5.982;2023-01-10T00:52:03;99994.22;;;6.70;79.56
36234;BME280;43467;50.890;5.982;2023-01-10T00:54:28;99988.31;;;6.64;79.34
36234;BME280;43467;50.890;5.982;2023-01-10T00:56:53;99993.66;;;6.61;79.07
36234;BME280;43467;50.890;5.982;2023-01-10T00:59:19;100004.13;;;6.62;78.90
36234;BME280;43467;50.890;5.982;2023-01-10T01:01:44;100009.41;;;6.62;79.08
36234;BME280;43467;50.890;5.982;2023-01-10T01:04:10;100010.56;;;6.53;78.88
36234;BME280;43467;50.890;5.982;2023-01-10T01:06:35;100002.63;;;6.55;78.55
36234;BME280;43467;50.890;5.982;2023-01-10T01:09:01;99991.81;;;6.36;78.82
36234;BME280;43467;50.890;5.982;2023-01-10T01:11:26;100020.03;;;6.59;78.77
36234;BME280;43467;50.890;5.982;2023-01-10T01:13:51;100034.84;;;6.62;78.53
36234;BME280;43467;50.890;5.982;2023-01-10T01:16:18;100040.97;;;6.62;78.34
36234;BME280;43467;50.890;5.982;2023-01-10T01:18:43;100050.28;;;6.72;77.81
36234;BME280;43467;50.890;5.982;2023-01-10T01:21:08;100024.38;;;6.60;77.91
36234;BME280;43467;50.890;5.982;2023-01-10T01:23:34;100038.22;;;6.65;77.83
36234;BME280;43467;50.890;5.982;2023-01-10T01:26:00;100050.44;;;6.68;77.43
36234;BME280;43467;50.890;5.982;2023-01-10T01:28:26;100055.63;;;6.69;77.37
36234;BME280;43467;50.890;5.982;2023-01-10T01:30:52;100059.50;;;6.58;77.45
36234;BME280;43467;50.890;5.982;2023-01-10T01:33:18;100071.22;;;6.75;76.69
36234;BME280;43467;50.890;5.982;2023-01-10T01:35:45;100075.72;;;6.72;76.49
36234;BME280;43467;50.890;5.982;2023-01-10T01:38:12;100078.25;;;6.75;76.48
36234;BME280;43467;50.890;5.982;2023-01-10T01:40:38;100079.03;;;6.77;76.11
36234;BME280;43467;50.890;5.982;2023-01-10T01:43:21;100080.56;;;6.58;76.23
36234;BME280;43467;50.890;5.982;2023-01-10T01:45:47;100094.28;;;6.67;76.11
36234;BME280;43467;50.890;5.982;2023-01-10T01:48:27;100099.69;;;6.63;76.51
36234;BME280;43467;50.890;5.982;2023-01-10T01:53:44;100097.97;;;6.62;76.07
36234;BME280;43467;50.890;5.982;2023-01-10T01:56:35;100095.19;;;6.66;76.23
36234;BME280;43467;50.890;5.982;2023-01-10T02:01:37;100111.84;;;6.67;76.15
36234;BME280;43467;50.890;5.982;2023-01-10T02:04:11;100106.81;;;6.59;76.17
36234;BME280;43467;50.890;5.982;2023-01-10T02:06:39;100117.00;;;6.70;76.04
36234;BME280;43467;50.890;5.982;2023-01-10T02:09:27;100115.81;;;6.52;76.44
36234;BME280;43467;50.890;5.982;2023-01-10T02:11:55;100119.59;;;6.43;77.10
36234;BME280;43467;50.890;5.982;2023-01-10T02:14:22;100125.56;;;6.48;77.11
36234;BME280;43467;50.890;5.982;2023-01-10T02:16:48;100124.50;;;6.54;76.78
36234;BME280;43467;50.890;5.982;2023-01-10T02:19:24;100114.28;;;6.45;76.87
36234;BME280;43467;50.890;5.982;2023-01-10T02:22:52;100125.03;;;6.65;76.57
36234;BME280;43467;50.890;5.982;2023-01-10T02:38:43;100167.81;;;6.72;75.79
36234;BME280;43467;50.890;5.982;2023-01-10T02:44:03;100152.34;;;6.61;76.02
36234;BME280;43467;50.890;5.982;2023-01-10T02:46:31;100156.06;;;6.54;76.10
36234;BME280;43467;50.890;5.982;2023-01-10T02:48:58;100152.31;;;6.63;76.08
36234;BME280;43467;50.890;5.982;2023-01-10T02:51:26;100148.94;;;6.58;76.36
36234;BME280;43467;50.890;5.982;2023-01-10T02:54:12;100144.75;;;6.52;76.27
36234;BME280;43467;50.890;5.982;2023-01-10T02:56:52;100138.66;;;6.50;76.23
36234;BME280;43467;50.890;5.982;2023-01-10T03:10:34;100156.72;;;6.33;76.74
36234;BME280;43467;50.890;5.982;2023-01-10T03:13:07;100155.97;;;6.28;77.03
36234;BME280;43467;50.890;5.982;2023-01-10T03:15:36;100162.44;;;6.18;77.56
36234;BME280;43467;50.890;5.982;2023-01-10T03:18:09;100162.34;;;6.21;77.46
36234;BME280;43467;50.890;5.982;2023-01-10T03:20:36;100181.72;;;6.17;77.58
36234;BME280;43467;50.890;5.982;2023-01-10T03:23:04;100177.44;;;6.14;77.49
36234;BME280;43467;50.890;5.982;2023-01-10T03:25:32;100187.75;;;6.20;77.55
36234;BME280;43467;50.890;5.982;2023-01-10T03:28:04;100187.53;;;5.98;77.94
36234;BME280;43467;50.890;5.982;2023-01-10T03:33:10;100209.88;;;6.13;77.69
36234;BME280;43467;50.890;5.982;2023-01-10T03:38:34;100216.56;;;5.92;78.50
36234;BME280;43467;50.890;5.982;2023-01-10T03:44:07;100228.91;;;5.90;78.52
36234;BME280;43467;50.890;5.982;2023-01-10T03:47:07;100236.53;;;5.99;78.70
36234;BME280;43467;50.890;5.982;2023-01-10T03:49:37;100239.88;;;6.06;78.54
36234;BME280;43467;50.890;5.982;2023-01-10T03:52:04;100242.25;;;6.15;78.05
36234;BME280;43467;50.890;5.982;2023-01-10T03:54:31;100237.78;;;6.19;77.79
36234;BME280;43467;50.890;5.982;2023-01-10T03:56:56;100239.47;;;6.20;77.82
36234;BME280;43467;50.890;5.982;2023-01-10T03:59:25;100241.09;;;6.24;77.37
36234;BME280;43467;50.890;5.982;2023-01-10T04:01:51;100245.34;;;6.29;77.42
36234;BME280;43467;50.890;5.982;2023-01-10T04:04:17;100251.28;;;6.36;77.09
36234;BME280;43467;50.890;5.982;2023-01-10T04:06:42;100244.34;;;6.33;77.32
36234;BME280;43467;50.890;5.982;2023-01-10T04:09:08;100242.44;;;6.07;77.76
36234;BME280;43467;50.890;5.982;2023-01-10T04:11:34;100229.34;;;6.06;78.09
36234;BME280;43467;50.890;5.982;2023-01-10T04:13:59;100248.28;;;6.19;78.06
36234;BME280;43467;50.890;5.982;2023-01-10T04:16:24;100250.91;;;6.19;78.15
36234;BME280;43467;50.890;5.982;2023-01-10T04:18:50;100250.72;;;6.25;77.85
36234;BME280;43467;50.890;5.982;2023-01-10T04:21:15;100258.84;;;6.16;78.05
36234;BME280;43467;50.890;5.982;2023-01-10T04:23:41;100253.69;;;6.13;78.00
36234;BME280;43467;50.890;5.982;2023-01-10T04:26:07;100254.75;;;6.07;78.26
36234;BME280;43467;50.890;5.982;2023-01-10T04:28:32;100252.63;;;6.20;78.00
36234;BME280;43467;50.890;5.982;2023-01-10T04:30:57;100258.81;;;6.19;78.24
36234;BME280;43467;50.890;5.982;2023-01-10T04:33:23;100266.75;;;6.16;78.31
36234;BME280;43467;50.890;5.982;2023-01-10T04:35:49;100268.56;;;6.14;78.15
36234;BME280;43467;50.890;5.982;2023-01-10T04:38:15;100263.34;;;6.12;78.28
36234;BME280;43467;50.890;5.982;2023-01-10T04:40:41;100265.16;;;6.10;78.23
36234;BME280;43467;50.890;5.982;2023-01-10T04:43:07;100262.91;;;5.96;78.86
36234;BME280;43467;50.890;5.982;2023-01-10T04:45:33;100272.28;;;6.06;78.97
36234;BME280;43467;50.890;5.982;2023-01-10T04:47:58;100266.34;;;5.98;78.96
36234;BME280;43467;50.890;5.982;2023-01-10T04:50:25;100264.38;;;6.06;78.59
36234;BME280;43467;50.890;5.982;2023-01-10T04:52:50;100273.00;;;6.12;78.38
36234;BME280;43467;50.890;5.982;2023-01-10T04:55:16;100270.53;;;6.05;78.40
36234;BME280;43467;50.890;5.982;2023-01-10T04:57:41;100270.41;;;6.10;78.21
36234;BME280;43467;50.890;5.982;2023-01-10T05:00:08;100258.28;;;6.04;78.23
36234;BME280;43467;50.890;5.982;2023-01-10T05:02:33;100264.66;;;5.96;78.87
36234;BME280;43467;50.890;5.982;2023-01-10T05:04:59;100269.38;;;5.82;78.96
36234;BME280;43467;50.890;5.982;2023-01-10T05:07:24;100283.44;;;5.79;79.19
36234;BME280;43467;50.890;5.982;2023-01-10T05:09:49;100299.91;;;5.87;79.25
36234;BME280;43467;50.890;5.982;2023-01-10T05:12:15;100296.38;;;5.90;79.12
36234;BME280;43467;50.890;5.982;2023-01-10T05:14:40;100298.22;;;5.86;79.46
36234;BME280;43467;50.890;5.982;2023-01-10T05:17:06;100282.44;;;5.86;79.31
36234;BME280;43467;50.890;5.982;2023-01-10T05:19:31;100271.19;;;5.80;79.36
36234;BME280;43467;50.890;5.982;2023-01-10T05:21:56;100276.38;;;5.83;79.37
36234;BME280;43467;50.890;5.982;2023-01-10T05:24:22;100276.53;;;5.77;79.36
36234;BME280;43467;50.890;5.982;2023-01-10T05:26:47;100288.66;;;5.82;79.65
36234;BME280;43467;50.890;5.982;2023-01-10T05:29:12;100294.94;;;5.75;79.70
36234;BME280;43467;50.890;5.982;2023-01-10T05:31:41;100295.09;;;5.69;80.23
36234;BME280;43467;50.890;5.982;2023-01-10T05:34:08;100303.78;;;5.73;80.11
36234;BME280;43467;50.890;5.982;2023-01-10T05:36:35;100312.59;;;5.70;80.06
36234;BME280;43467;50.890;5.982;2023-01-10T05:39:00;100323.03;;;5.72;80.25
36234;BME280;43467;50.890;5.982;2023-01-10T05:41:26;100323.22;;;5.66;80.10
36234;BME280;43467;50.890;5.982;2023-01-10T05:43:51;100338.63;;;5.79;79.92
36234;BME280;43467;50.890;5.982;2023-01-10T05:46:16;100338.88;;;5.70;80.31
36234;BME280;43467;50.890;5.982;2023-01-10T05:48:42;100333.22;;;5.85;79.83
36234;BME280;43467;50.890;5.982;2023-01-10T05:51:07;100344.81;;;5.77;80.03
36234;BME280;43467;50.890;5.982;2023-01-10T05:53:33;100319.94;;;5.56;80.29
36234;BME280;43467;50.890;5.982;2023-01-10T05:56:00;100347.47;;;5.75;79.78
36234;BME280;43467;50.890;5.982;2023-01-10T05:58:26;100345.25;;;5.58;80.65
36234;BME280;43467;50.890;5.982;2023-01-10T06:00:54;100336.25;;;5.69;80.48
36234;BME280;43467;50.890;5.982;2023-01-10T06:03:19;100331.19;;;5.61;80.78
36234;BME280;43467;50.890;5.982;2023-01-10T06:05:45;100342.47;;;5.66;80.43
36234;BME280;43467;50.890;5.982;2023-01-10T06:08:10;100349.66;;;5.58;80.67
36234;BME280;43467;50.890;5.982;2023-01-10T06:10:36;100340.94;;;5.56;81.15
36234;BME280;43467;50.890;5.982;2023-01-10T06:13:01;100346.97;;;5.61;81.10
36234;BME280;43467;50.890;5.982;2023-01-10T06:15:27;100353.38;;;5.49;81.32
36234;BME280;43467;50.890;5.982;2023-01-10T06:17:52;100350.56;;;5.57;81.05
36234;BME280;43467;50.890;5.982;2023-01-10T06:20:18;100355.84;;;5.55;81.00
36234;BME280;43467;50.890;5.982;2023-01-10T06:22:43;100345.50;;;5.49;81.01
36234;BME280;43467;50.890;5.982;2023-01-10T06:25:09;100349.59;;;5.61;80.53
36234;BME280;43467;50.890;5.982;2023-01-10T06:27:38;100368.66;;;5.69;80.49
36234;BME280;43467;50.890;5.982;2023-01-10T06:30:04;100371.66;;;5.52;81.00
36234;BME280;43467;50.890;5.982;2023-01-10T06:32:29;100370.78;;;5.53;81.03
36234;BME280;43467;50.890;5.982;2023-01-10T06:34:55;100368.78;;;5.63;80.69
36234;BME280;43467;50.890;5.982;2023-01-10T06:37:20;100363.97;;;5.45;81.26
36234;BME280;43467;50.890;5.982;2023-01-10T06:39:45;100367.28;;;5.53;81.19
36234;BME280;43467;50.890;5.982;2023-01-10T06:42:11;100375.28;;;5.47;81.30
36234;BME280;43467;50.890;5.982;2023-01-10T06:44:37;100379.94;;;5.34;81.79
36234;BME280;43467;50.890;5.982;2023-01-10T06:47:02;100380.63;;;5.42;81.55
36234;BME280;43467;50.890;5.982;2023-01-10T06:49:27;100384.09;;;5.44;81.48
36234;BME280;43467;50.890;5.982;2023-01-10T06:51:54;100395.28;;;5.54;80.76
36234;BME280;43467;50.890;5.982;2023-01-10T06:54:19;100385.84;;;5.45;81.06
36234;BME280;43467;50.890;5.982;2023-01-10T06:56:46;100406.69;;;5.51;81.25
36234;BME280;43467;50.890;5.982;2023-01-10T06:59:12;100411.03;;;5.54;80.86
36234;BME280;43467;50.890;5.982;2023-01-10T07:01:37;100409.41;;;5.47;81.47
36234;BME280;43467;50.890;5.982;2023-01-10T07:04:03;100411.03;;;5.54;80.96
36234;BME280;43467;50.890;5.982;2023-01-10T07:06:28;100402.47;;;5.46;81.38
36234;BME280;43467;50.890;5.982;2023-01-10T07:08:54;100408.56;;;5.46;81.25
36234;BME280;43467;50.890;5.982;2023-01-10T07:11:19;100404.13;;;5.50;81.05
36234;BME280;43467;50.890;5.982;2023-01-10T07:13:45;100387.25;;;5.22;81.67
36234;BME280;43467;50.890;5.982;2023-01-10T07:16:13;100324.06;;;4.89;81.34
36234;BME280;43467;50.890;5.982;2023-01-10T07:18:41;100416.69;;;5.36;81.64
36234;BME280;43467;50.890;5.982;2023-01-10T07:21:07;100432.34;;;5.40;81.77
36234;BME280;43467;50.890;5.982;2023-01-10T07:23:32;100436.81;;;5.35;81.68
36234;BME280;43467;50.890;5.982;2023-01-10T07:26:02;100435.91;;;5.38;81.39
36234;BME280;43467;50.890;5.982;2023-01-10T07:28:28;100430.69;;;5.36;81.32
36234;BME280;43467;50.890;5.982;2023-01-10T07:30:54;100447.22;;;5.40;81.21
36234;BME280;43467;50.890;5.982;2023-01-10T07:33:21;100448.69;;;5.53;80.75
36234;BME280;43467;50.890;5.982;2023-01-10T07:35:47;100451.41;;;5.48;80.86
36234;BME280;43467;50.890;5.982;2023-01-10T07:38:12;100461.06;;;5.46;81.07
36234;BME280;43467;50.890;5.982;2023-01-10T07:40:37;100457.72;;;5.41;81.06
36234;BME280;43467;50.890;5.982;2023-01-10T07:43:03;100462.97;;;5.41;81.13
36234;BME280;43467;50.890;5.982;2023-01-10T07:45:29;100456.00;;;5.39;81.15
36234;BME280;43467;50.890;5.982;2023-01-10T07:48:04;100461.91;;;5.48;80.89
36234;BME280;43467;50.890;5.982;2023-01-10T07:50:32;100464.66;;;5.42;80.95
36234;BME280;43467;50.890;5.982;2023-01-10T07:52:59;100445.78;;;5.25;81.22
36234;BME280;43467;50.890;5.982;2023-01-10T07:55:26;100468.31;;;5.35;81.25
36234;BME280;43467;50.890;5.982;2023-01-10T07:57:52;100467.53;;;5.32;81.32
36234;BME280;43467;50.890;5.982;2023-01-10T08:00:18;100471.56;;;5.46;80.82
36234;BME280;43467;50.890;5.982;2023-01-10T08:02:43;100478.66;;;5.43;80.80
36234;BME280;43467;50.890;5.982;2023-01-10T08:05:09;100464.72;;;5.41;80.73
36234;BME280;43467;50.890;5.982;2023-01-10T08:07:35;100478.81;;;5.35;80.94
36234;BME280;43467;50.890;5.982;2023-01-10T08:10:01;100479.94;;;5.24;81.47
36234;BME280;43467;50.890;5.982;2023-01-10T08:12:26;100488.66;;;5.26;81.69
36234;BME280;43467;50.890;5.982;2023-01-10T08:14:52;100493.91;;;5.26;81.82
36234;BME280;43467;50.890;5.982;2023-01-10T08:17:18;100496.38;;;5.33;81.75
36234;BME280;43467;50.890;5.982;2023-01-10T08:19:44;100493.13;;;5.21;81.90
36234;BME280;43467;50.890;5.982;2023-01-10T08:22:10;100489.63;;;5.22;81.84
36234;BME280;43467;50.890;5.982;2023-01-10T08:24:35;100488.66;;;5.26;81.80
36234;BME280;43467;50.890;5.982;2023-01-10T08:27:01;100484.06;;;5.35;81.34
36234;BME280;43467;50.890;5.982;2023-01-10T08:29:27;100484.75;;;5.45;80.88
36234;BME280;43467;50.890;5.982;2023-01-10T08:31:53;100486.53;;;5.43;80.81
36234;BME280;43467;50.890;5.982;2023-01-10T08:34:19;100486.44;;;5.47;80.53
36234;BME280;43467;50.890;5.982;2023-01-10T08:36:44;100477.75;;;5.45;80.71
36234;BME280;43467;50.890;5.982;2023-01-10T08:39:11;100488.16;;;5.50;80.45
36234;BME280;43467;50.890;5.982;2023-01-10T08:41:36;100481.03;;;5.55;80.52
36234;BME280;43467;50.890;5.982;2023-01-10T08:44:04;100442.94;;;5.36;79.97
36234;BME280;43467;50.890;5.982;2023-01-10T08:46:30;100486.50;;;5.84;79.22
36234;BME280;43467;50.890;5.982;2023-01-10T08:48:55;100479.28;;;5.95;78.60
36234;BME280;43467;50.890;5.982;2023-01-10T08:51:20;100503.69;;;6.02;78.25
36234;BME280;43467;50.890;5.982;2023-01-10T08:53:46;100492.41;;;5.95;78.16
36234;BME280;43467;50.890;5.982;2023-01-10T08:56:11;100500.34;;;5.94;78.50
36234;BME280;43467;50.890;5.982;2023-01-10T08:58:37;100499.50;;;5.93;78.45
36234;BME280;43467;50.890;5.982;2023-01-10T09:01:03;100501.84;;;6.04;78.33
36234;BME280;43467;50.890;5.982;2023-01-10T09:03:29;100489.75;;;5.98;78.30
36234;BME280;43467;50.890;5.982;2023-01-10T09:05:54;100505.34;;;6.06;78.02
36234;BME280;43467;50.890;5.982;2023-01-10T09:08:20;100510.50;;;6.11;77.75
36234;BME280;43467;50.890;5.982;2023-01-10T09:10:45;100506.84;;;6.16;77.61
36234;BME280;43467;50.890;5.982;2023-01-10T09:13:12;100492.22;;;6.04;78.13
36234;BME280;43467;50.890;5.982;2023-01-10T09:15:37;100499.09;;;6.10;78.28
36234;BME280;43467;50.890;5.982;2023-01-10T09:18:05;100499.59;;;6.27;77.63
36234;BME280;43467;50.890;5.982;2023-01-10T09:20:33;100498.66;;;6.28;77.34
36234;BME280;43467;50.890;5.982;2023-01-10T09:23:04;100490.03;;;6.23;77.38
36234;BME280;43467;50.890;5.982;2023-01-10T09:25:30;100494.47;;;6.20;77.87
36234;BME280;43467;50.890;5.982;2023-01-10T09:27:59;100497.06;;;6.23;77.76
36234;BME280;43467;50.890;5.982;2023-01-10T09:30:26;100489.09;;;6.26;77.58
36234;BME280;43467;50.890;5.982;2023-01-10T09:32:53;100489.16;;;6.23;77.62
36234;BME280;43467;50.890;5.982;2023-01-10T09:35:18;100510.19;;;6.23;77.96
36234;BME280;43467;50.890;5.982;2023-01-10T09:37:45;100496.19;;;6.22;77.99
36234;BME280;43467;50.890;5.982;2023-01-10T09:40:16;100504.78;;;6.29;77.82
36234;BME280;43467;50.890;5.982;2023-01-10T09:43:02;100499.31;;;6.38;77.71
36234;BME280;43467;50.890;5.982;2023-01-10T09:45:42;100498.22;;;6.46;77.65
36234;BME280;43467;50.890;5.982;2023-01-10T09:48:37;100504.19;;;6.53;77.42
36234;BME280;43467;50.890;5.982;2023-01-10T09:53:51;100493.41;;;6.64;76.58
36234;BME280;43467;50.890;5.982;2023-01-10T09:56:19;100493.78;;;6.82;76.62
36234;BME280;43467;50.890;5.982;2023-01-10T09:58:45;100483.66;;;6.67;76.57
36234;BME280;43467;50.890;5.982;2023-01-10T10:01:15;100494.84;;;6.75;76.50
36234;BME280;43467;50.890;5.982;2023-01-10T10:03:51;100496.31;;;6.85;75.99
36234;BME280;43467;50.890;5.982;2023-01-10T10:06:21;100493.56;;;6.91;75.77
36234;BME280;43467;50.890;5.982;2023-01-10T10:08:47;100491.38;;;7.07;75.60
36234;BME280;43467;50.890;5.982;2023-01-10T10:11:32;100488.84;;;7.03;75.51
36234;BME280;43467;50.890;5.982;2023-01-10T10:20:15;100494.06;;;7.36;74.96
36234;BME280;43467;50.890;5.982;2023-01-10T10:22:55;100478.19;;;7.38;74.46
36234;BME280;43467;50.890;5.982;2023-01-10T10:31:24;100473.13;;;7.61;74.16
36234;BME280;43467;50.890;5.982;2023-01-10T10:36:57;100474.47;;;7.74;73.12
36234;BME280;43467;50.890;5.982;2023-01-10T10:39:34;100448.34;;;7.67;73.24
36234;BME280;43467;50.890;5.982;2023-01-10T10:42:02;100456.38;;;7.62;73.71
36234;BME280;43467;50.890;5.982;2023-01-10T10:47:00;100440.03;;;7.51;73.32
36234;BME280;43467;50.890;5.982;2023-01-10T10:49:35;100439.69;;;7.63;73.23
36234;BME280;43467;50.890;5.982;2023-01-10T10:52:08;100439.13;;;7.54;73.53
36234;BME280;43467;50.890;5.982;2023-01-10T10:54:36;100429.28;;;7.59;73.43
36234;BME280;43467;50.890;5.982;2023-01-10T10:57:02;100427.41;;;7.62;73.64
36234;BME280;43467;50.890;5.982;2023-01-10T10:59:27;100424.56;;;7.70;73.47
36234;BME280;43467;50.890;5.982;2023-01-10T11:01:53;100426.13;;;7.75;72.87
36234;BME280;43467;50.890;5.982;2023-01-10T11:04:22;100426.06;;;7.78;72.81
36234;BME280;43467;50.890;5.982;2023-01-10T11:06:48;100405.63;;;7.85;72.92
36234;BME280;43467;50.890;5.982;2023-01-10T11:09:19;100398.47;;;7.88;72.85
36234;BME280;43467;50.890;5.982;2023-01-10T11:11:52;100388.16;;;7.82;72.54
36234;BME280;43467;50.890;5.982;2023-01-10T11:14:41;100405.34;;;7.94;72.26
36234;BME280;43467;50.890;5.982;2023-01-10T11:17:32;100406.63;;;8.07;72.08
36234;BME280;43467;50.890;5.982;2023-01-10T11:20:13;100396.78;;;8.14;72.29
36234;BME280;43467;50.890;5.982;2023-01-10T11:25:15;100401.31;;;8.09;72.01
36234;BME280;43467;50.890;5.982;2023-01-10T11:27:58;100400.19;;;8.16;71.63
36234;BME280;43467;50.890;5.982;2023-01-10T11:30:32;100390.19;;;8.27;71.78
36234;BME280;43467;50.890;5.982;2023-01-10T11:33:03;100391.34;;;8.18;71.57
36234;BME280;43467;50.890;5.982;2023-01-10T11:35:36;100374.81;;;8.13;71.27
36234;BME280;43467;50.890;5.982;2023-01-10T11:40:31;100387.34;;;8.33;71.16
36234;BME280;43467;50.890;5.982;2023-01-10T11:42:57;100387.25;;;8.36;70.80
36234;BME280;43467;50.890;5.982;2023-01-10T11:45:26;100384.25;;;8.47;70.47
36234;BME280;43467;50.890;5.982;2023-01-10T11:48:04;100376.22;;;8.50;70.27
36234;BME280;43467;50.890;5.982;2023-01-10T11:50:33;100392.75;;;8.30;70.24
36234;BME280;43467;50.890;5.982;2023-01-10T11:52:59;100383.72;;;8.35;70.67
36234;BME280;43467;50.890;5.982;2023-01-10T11:55:30;100373.84;;;8.42;70.19
36234;BME280;43467;50.890;5.982;2023-01-10T11:58:08;100381.88;;;8.39;70.29
36234;BME280;43467;50.890;5.982;2023-01-10T12:00:55;100367.75;;;8.40;70.15
36234;BME280;43467;50.890;5.982;2023-01-10T12:03:32;100369.97;;;8.52;70.03
36234;BME280;43467;50.890;5.982;2023-01-10T12:06:13;100368.75;;;8.62;69.87
36234;BME280;43467;50.890;5.982;2023-01-10T12:08:40;100367.81;;;8.63;69.69
36234;BME280;43467;50.890;5.982;2023-01-10T12:13:45;100363.41;;;8.64;69.28
36234;BME280;43467;50.890;5.982;2023-01-10T12:16:15;100367.00;;;8.61;69.40
36234;BME280;43467;50.890;5.982;2023-01-10T12:18:40;100360.22;;;8.54;69.14
36234;BME280;43467;50.890;5.982;2023-01-10T12:21:06;100358.31;;;8.59;69.37
36234;BME280;43467;50.890;5.982;2023-01-10T12:23:33;100358.31;;;8.59;69.33
36234;BME280;43467;50.890;5.982;2023-01-10T12:26:05;100355.75;;;8.56;69.23
36234;BME280;43467;50.890;5.982;2023-01-10T12:28:31;100353.69;;;8.64;68.98
36234;BME280;43467;50.890;5.982;2023-01-10T12:30:59;100347.75;;;8.59;69.02
36234;BME280;43467;50.890;5.982;2023-01-10T12:33:30;100345.84;;;8.63;68.74
36234;BME280;43467;50.890;5.982;2023-01-10T12:36:01;100342.34;;;8.62;69.34
36234;BME280;43467;50.890;5.982;2023-01-10T12:38:31;100352.47;;;8.74;69.29
36234;BME280;43467;50.890;5.982;2023-01-10T12:44:39;100338.22;;;8.55;69.02
36234;BME280;43467;50.890;5.982;2023-01-10T12:49:57;100338.56;;;8.69;68.95
36234;BME280;43467;50.890;5.982;2023-01-10T12:52:41;100326.28;;;8.68;68.38
36234;BME280;43467;50.890;5.982;2023-01-10T12:57:39;100315.91;;;8.64;68.16
36234;BME280;43467;50.890;5.982;2023-01-10T13:00:35;100319.22;;;8.69;68.17
36234;BME280;43467;50.890;5.982;2023-01-10T13:03:03;100306.84;;;8.71;68.12
36234;BME280;43467;50.890;5.982;2023-01-10T13:05:31;100301.94;;;8.60;67.78
36234;BME280;43467;50.890;5.982;2023-01-10T13:08:05;100297.19;;;8.70;67.57
36234;BME280;43467;50.890;5.982;2023-01-10T13:10:33;100288.19;;;8.75;67.39
36234;BME280;43467;50.890;5.982;2023-01-10T13:13:11;100276.31;;;8.64;67.13
36234;BME280;43467;50.890;5.982;2023-01-10T13:15:46;100271.38;;;8.55;67.30
36234;BME280;43467;50.890;5.982;2023-01-10T13:18:30;100281.84;;;8.56;67.75
36234;BME280;43467;50.890;5.982;2023-01-10T13:21:07;100266.44;;;8.46;67.50
36234;BME280;43467;50.890;5.982;2023-01-10T13:23:57;100283.91;;;8.48;67.53
36234;BME280;43467;50.890;5.982;2023-01-10T13:26:24;100267.44;;;8.42;67.56
36234;BME280;43467;50.890;5.982;2023-01-10T13:28:55;100274.19;;;8.50;68.00
36234;BME280;43467;50.890;5.982;2023-01-10T13:31:32;100259.09;;;8.54;68.03
36234;BME280;43467;50.890;5.982;2023-01-10T13:34:01;100266.44;;;8.46;67.90
36234;BME280;43467;50.890;5.982;2023-01-10T13:36:30;100267.28;;;8.46;68.28
36234;BME280;43467;50.890;5.982;2023-01-10T13:39:02;100255.81;;;8.47;67.95
36234;BME280;43467;50.890;5.982;2023-01-10T14:03:54;100231.25;;;8.20;67.08
36234;BME280;43467;50.890;5.982;2023-01-10T14:09:30;100222.06;;;8.32;66.99
36234;BME280;43467;50.890;5.982;2023-01-10T14:11:51;100219.22;;;8.38;67.06
36234;BME280;43467;50.890;5.982;2023-01-10T14:14:26;100216.63;;;8.36;67.66
36234;BME280;43467;50.890;5.982;2023-01-10T14:17:34;100198.28;;;8.33;68.92
36234;BME280;43467;50.890;5.982;2023-01-10T14:20:02;100216.69;;;8.35;69.53
36234;BME280;43467;50.890;5.982;2023-01-10T14:22:32;100216.34;;;8.19;70.13
36234;BME280;43467;50.890;5.982;2023-01-10T14:25:06;100211.47;;;8.09;71.11
36234;BME280;43467;50.890;5.982;2023-01-10T14:27:44;100200.00;;;8.10;71.67
36234;BME280;43467;50.890;5.982;2023-01-10T14:32:50;100205.41;;;8.07;72.33
36234;BME280;43467;50.890;5.982;2023-01-10T14:35:20;100191.72;;;7.95;72.75
36234;BME280;43467;50.890;5.982;2023-01-10T14:37:54;100197.56;;;8.04;73.02
36234;BME280;43467;50.890;5.982;2023-01-10T14:40:28;100185.38;;;8.01;73.45
36234;BME280;43467;50.890;5.982;2023-01-10T14:43:00;100184.41;;;8.04;74.09
36234;BME280;43467;50.890;5.982;2023-01-10T14:45:42;100180.09;;;8.01;73.90
36234;BME280;43467;50.890;5.982;2023-01-10T14:48:45;100167.53;;;7.84;74.73
36234;BME280;43467;50.890;5.982;2023-01-10T14:51:27;100169.13;;;7.88;75.41
36234;BME280;43467;50.890;5.982;2023-01-10T14:54:10;100166.47;;;7.90;75.85
36234;BME280;43467;50.890;5.982;2023-01-10T14:59:31;100153.56;;;7.82;77.75